IWG007 LEGE-LEVX
Flight info
| Callsign | IWG007 |
|---|---|
| Flight time | N/A |
| Altitude | 33000 |
| Route | MAMUK L110 REBUL M601 PPN N976 DGO N725 SUSOS LOMDA |
| Aircraft | A20N/M-SDE2E3FGHIJ1RWXY/LB1 |
Departure
| Time | N/A |
|---|---|
| Airport | Girona-Costa Brava Airport (LEGE) |
Arrival
| Time | 2026-04-14 12:08 |
|---|---|
| Airport | Vigo Airport (LEVX) |
| Time | Latitude | Longitude | Altitude | Speed | Heading |
|---|---|---|---|---|---|
| 2026-04-14 11:58 | 42.61362 | -8.16444 | 10551 ft | 322 kts | 250° |
| 2026-04-14 11:59 | 42.60586 | -8.19202 | 10433 ft | 309 kts | 250° |
| 2026-04-14 11:59 | 42.59834 | -8.21876 | 10330 ft | 296 kts | 250° |
| 2026-04-14 11:59 | 42.59111 | -8.24443 | 10106 ft | 287 kts | 250° |
| 2026-04-14 11:59 | 42.58402 | -8.26967 | 9689 ft | 284 kts | 250° |
| 2026-04-14 12:00 | 42.57713 | -8.29423 | 9298 ft | 281 kts | 250° |
| 2026-04-14 12:00 | 42.57015 | -8.31901 | 8898 ft | 280 kts | 250° |
| 2026-04-14 12:00 | 42.56316 | -8.34383 | 8509 ft | 279 kts | 250° |
| 2026-04-14 12:00 | 42.55620 | -8.36845 | 8117 ft | 278 kts | 249° |
| 2026-04-14 12:01 | 42.54939 | -8.39256 | 7718 ft | 277 kts | 249° |
| 2026-04-14 12:01 | 42.54251 | -8.41689 | 7332 ft | 276 kts | 249° |
| 2026-04-14 12:01 | 42.53567 | -8.44101 | 7069 ft | 270 kts | 249° |
| 2026-04-14 12:01 | 42.52891 | -8.46483 | 6706 ft | 269 kts | 249° |
| 2026-04-14 12:02 | 42.52222 | -8.48845 | 6368 ft | 267 kts | 248° |
| 2026-04-14 12:02 | 42.51560 | -8.51175 | 6017 ft | 266 kts | 249° |
| 2026-04-14 12:02 | 42.50839 | -8.53464 | 5613 ft | 264 kts | 237° |
| 2026-04-14 12:02 | 42.49557 | -8.55187 | 5316 ft | 258 kts | 210° |
| 2026-04-14 12:03 | 42.47893 | -8.55937 | 5221 ft | 248 kts | 193° |
| 2026-04-14 12:03 | 42.46256 | -8.56374 | 5134 ft | 238 kts | 193° |
| 2026-04-14 12:03 | 42.44670 | -8.56805 | 5057 ft | 227 kts | 193° |
| 2026-04-14 12:03 | 42.43153 | -8.57218 | 4934 ft | 218 kts | 193° |
| 2026-04-14 12:04 | 42.41625 | -8.57644 | 4229 ft | 235 kts | 194° |
| 2026-04-14 12:04 | 42.39985 | -8.58116 | 3655 ft | 241 kts | 193° |
| 2026-04-14 12:04 | 42.38399 | -8.58579 | 3415 ft | 223 kts | 194° |
| 2026-04-14 12:04 | 42.36947 | -8.59005 | 3278 ft | 206 kts | 194° |
| 2026-04-14 12:05 | 42.35611 | -8.59345 | 3186 ft | 187 kts | 190° |
| 2026-04-14 12:05 | 42.34367 | -8.59560 | 2959 ft | 176 kts | 190° |
| 2026-04-14 12:05 | 42.33098 | -8.59868 | 2759 ft | 192 kts | 195° |
| 2026-04-14 12:05 | 42.31817 | -8.60374 | 2527 ft | 192 kts | 199° |
| 2026-04-14 12:06 | 42.30535 | -8.60813 | 2292 ft | 182 kts | 191° |
| 2026-04-14 12:06 | 42.29343 | -8.61004 | 2045 ft | 167 kts | 188° |
| 2026-04-14 12:06 | 42.28210 | -8.61229 | 1589 ft | 160 kts | 193° |
| 2026-04-14 12:06 | 42.27229 | -8.61593 | 1520 ft | 131 kts | 198° |
| 2026-04-14 12:07 | 42.26370 | -8.61820 | 1326 ft | 131 kts | 189° |
| 2026-04-14 12:07 | 42.25471 | -8.62038 | 1157 ft | 135 kts | 194° |
| 2026-04-14 12:07 | 42.24554 | -8.62309 | 906 ft | 133 kts | 192° |
| 2026-04-14 12:07 | 42.23685 | -8.62557 | 841 ft | 115 kts | 190° |
| 2026-04-14 12:08 | 42.23120 | -8.62706 | 841 ft | 56 kts | 189° |
| 2026-04-14 12:08 | 42.22793 | -8.62790 | 837 ft | 45 kts | 193° |
| 2026-04-14 12:08 | 42.22503 | -8.62865 | 832 ft | 41 kts | 192° |
| 2026-04-14 12:08 | 42.22237 | -8.62947 | 832 ft | 34 kts | 193° |
| 2026-04-14 12:09 | 42.22115 | -8.63091 | 838 ft | 24 kts | 267° |
| 2026-04-14 12:09 | 42.22219 | -8.63156 | 832 ft | 19 kts | 11° |
| 2026-04-14 12:09 | 42.22355 | -8.63119 | 842 ft | 21 kts | 11° |
| 2026-04-14 12:09 | 42.22479 | -8.63115 | 832 ft | 16 kts | 346° |
| 2026-04-14 12:10 | 42.22509 | -8.63173 | 836 ft | 4 kts | 280° |
| 2026-04-14 12:10 | 42.22512 | -8.63188 | 838 ft | 0 kts | 281° |